createdAt,value
2022-08-21T00:02:17.460Z,16.92
2022-08-21T00:04:54.568Z,12.20
2022-08-21T00:07:27.330Z,15.98
2022-08-21T00:09:59.872Z,16.08
2022-08-21T00:12:28.831Z,10.75
2022-08-21T00:14:58.209Z,16.77
2022-08-21T00:17:28.511Z,13.73
2022-08-21T00:19:58.411Z,10.07
2022-08-21T00:22:29.436Z,18.65
2022-08-21T00:24:58.308Z,11.90
2022-08-21T00:27:27.054Z,12.80
2022-08-21T00:29:56.515Z,13.20
2022-08-21T00:32:28.575Z,13.02
2022-08-21T00:34:59.184Z,15.15
2022-08-21T00:37:28.649Z,15.90
2022-08-21T00:39:59.215Z,11.98
2022-08-21T00:42:32.881Z,13.88
2022-08-21T00:45:02.422Z,13.88
2022-08-21T00:47:34.104Z,10.93
2022-08-21T00:50:03.886Z,10.65
2022-08-21T00:52:37.049Z,13.63
2022-08-21T00:55:09.988Z,16.75
2022-08-21T00:57:46.015Z,12.50
2022-08-21T01:00:23.854Z,13.52
2022-08-21T01:03:00.721Z,12.07
2022-08-21T01:05:30.115Z,12.60
2022-08-21T01:08:00.387Z,11.48
2022-08-21T01:10:30.367Z,12.45
2022-08-21T01:13:00.615Z,13.82
2022-08-21T01:15:41.277Z,13.32
2022-08-21T01:18:15.949Z,13.73
2022-08-21T01:20:59.428Z,15.90
2022-08-21T01:23:28.680Z,15.23
2022-08-21T01:25:57.494Z,12.65
2022-08-21T01:28:26.732Z,12.65
2022-08-21T01:30:57.191Z,7.97
2022-08-21T01:33:27.464Z,16.05
2022-08-21T01:35:56.681Z,9.38
2022-08-21T01:38:27.671Z,13.73
2022-08-21T01:40:58.683Z,13.32
2022-08-21T01:43:30.709Z,12.20
2022-08-21T01:46:08.625Z,11.70
2022-08-21T01:48:38.612Z,14.80
2022-08-21T01:51:08.445Z,14.80
2022-08-21T01:53:40.340Z,12.43
2022-08-21T01:56:13.906Z,11.35
2022-08-21T01:58:44.225Z,15.45
2022-08-21T02:01:14.929Z,12.15
2022-08-21T02:03:44.597Z,14.63
2022-08-21T02:06:19.232Z,12.00
2022-08-21T02:08:51.473Z,10.35
2022-08-21T02:11:21.615Z,16.13
2022-08-21T02:13:50.332Z,15.30
2022-08-21T02:16:19.663Z,12.25
2022-08-21T02:18:49.242Z,11.68
2022-08-21T02:21:17.886Z,15.23
2022-08-21T02:23:48.536Z,12.77
2022-08-21T02:26:17.956Z,12.95
2022-08-21T02:28:47.436Z,14.13
2022-08-21T02:31:17.688Z,12.55
2022-08-21T02:33:46.912Z,15.07
2022-08-21T02:36:16.393Z,15.00
2022-08-21T02:38:46.026Z,9.60
2022-08-21T02:41:20.454Z,14.75
2022-08-21T02:43:49.797Z,11.23
2022-08-21T02:46:22.378Z,11.50
2022-08-21T02:48:51.234Z,14.48
2022-08-21T02:51:23.998Z,13.50
2022-08-21T02:53:52.725Z,11.35
2022-08-21T02:56:24.155Z,13.55
2022-08-21T02:58:57.708Z,10.85
2022-08-21T03:01:30.263Z,13.75
2022-08-21T03:03:59.138Z,10.65
2022-08-21T03:06:28.230Z,13.35
2022-08-21T03:08:57.729Z,16.95
2022-08-21T03:11:29.734Z,16.15
2022-08-21T03:13:59.357Z,14.05
2022-08-21T03:16:34.377Z,10.82
2022-08-21T03:19:05.832Z,14.05
2022-08-21T03:21:35.961Z,13.20
2022-08-21T03:24:08.052Z,13.35
2022-08-21T03:26:38.450Z,15.43
2022-08-21T03:29:10.949Z,12.35
2022-08-21T03:31:40.683Z,12.90
2022-08-21T03:34:09.758Z,8.85
2022-08-21T03:36:38.238Z,13.98
2022-08-21T03:39:08.429Z,13.82
2022-08-21T03:41:41.778Z,10.05
2022-08-21T03:44:10.905Z,16.38
2022-08-21T03:46:40.080Z,12.32
2022-08-21T03:49:10.332Z,13.25
2022-08-21T03:51:38.795Z,15.82
2022-08-21T03:54:07.953Z,18.23
2022-08-21T03:56:38.533Z,12.40
2022-08-21T03:59:07.557Z,17.08
2022-08-21T04:01:37.454Z,16.08
2022-08-21T04:04:07.492Z,12.23
2022-08-21T04:06:38.021Z,13.10
2022-08-21T04:09:07.656Z,14.88
2022-08-21T04:11:40.199Z,18.02
2022-08-21T04:14:08.912Z,20.67
2022-08-21T04:16:40.342Z,19.10
2022-08-21T04:19:10.119Z,17.40
2022-08-21T04:21:40.675Z,16.23
2022-08-21T04:24:11.661Z,18.55
2022-08-21T04:26:43.385Z,20.33
2022-08-21T04:29:14.714Z,17.58
2022-08-21T04:31:44.795Z,20.10
2022-08-21T04:34:15.975Z,20.38
2022-08-21T04:36:45.172Z,22.40
2022-08-21T04:39:14.102Z,19.83
2022-08-21T04:41:46.067Z,18.67
2022-08-21T04:44:15.937Z,23.58
2022-08-21T04:46:45.252Z,19.15
2022-08-21T04:49:13.825Z,15.70
2022-08-21T04:51:43.290Z,22.80
2022-08-21T04:54:17.386Z,21.35
2022-08-21T04:56:54.840Z,18.45
2022-08-21T04:59:27.250Z,15.05
2022-08-21T05:01:57.711Z,13.88
2022-08-21T05:04:34.874Z,15.30
2022-08-21T05:07:11.930Z,17.40
2022-08-21T05:09:41.837Z,20.30
2022-08-21T05:12:13.379Z,18.95
2022-08-21T05:14:43.406Z,20.42
2022-08-21T05:17:14.211Z,19.92
2022-08-21T05:19:43.650Z,17.83
2022-08-21T05:22:12.511Z,17.73
2022-08-21T05:24:42.487Z,16.90
2022-08-21T05:27:14.720Z,19.10
2022-08-21T05:29:47.706Z,18.33
2022-08-21T05:32:17.160Z,13.60
2022-08-21T05:34:45.854Z,16.73
2022-08-21T05:37:16.512Z,24.33
2022-08-21T05:40:20.702Z,14.82
2022-08-21T05:42:36.512Z,19.48
2022-08-21T05:45:06.327Z,20.70
2022-08-21T05:47:35.248Z,18.10
2022-08-21T05:50:06.540Z,17.70
2022-08-21T05:52:35.544Z,16.38
2022-08-21T05:55:05.700Z,25.83
2022-08-21T05:57:36.786Z,20.10
2022-08-21T06:00:14.414Z,19.73
2022-08-21T06:02:43.958Z,12.93
2022-08-21T06:05:13.433Z,16.13
2022-08-21T06:07:46.280Z,14.10
2022-08-21T06:10:16.200Z,20.45
2022-08-21T06:12:47.427Z,16.92
2022-08-21T06:15:16.218Z,13.70
2022-08-21T06:17:46.737Z,19.02
2022-08-21T06:20:16.044Z,22.50
2022-08-21T06:22:44.898Z,15.27
2022-08-21T06:25:14.146Z,19.15
2022-08-21T06:27:44.067Z,18.70
2022-08-21T06:30:16.172Z,15.20
2022-08-21T06:32:44.893Z,17.73
2022-08-21T06:35:14.828Z,18.95
2022-08-21T06:37:44.012Z,20.83
2022-08-21T06:40:14.341Z,15.65
2022-08-21T06:42:43.071Z,22.27
2022-08-21T06:45:14.575Z,17.83
2022-08-21T06:47:43.574Z,17.33
2022-08-21T06:50:12.482Z,18.58
2022-08-21T06:52:43.974Z,28.60
2022-08-21T06:55:22.217Z,15.82
2022-08-21T06:57:54.383Z,16.60
2022-08-21T07:00:25.364Z,23.25
2022-08-21T07:03:06.792Z,15.10
2022-08-21T07:05:35.701Z,17.80
2022-08-21T07:08:05.097Z,17.48
2022-08-21T07:10:33.972Z,19.13
2022-08-21T07:13:03.170Z,23.75
2022-08-21T07:15:34.201Z,17.80
2022-08-21T07:18:03.409Z,20.52
2022-08-21T07:20:33.628Z,18.75
2022-08-21T07:23:07.858Z,20.33
2022-08-21T07:25:37.280Z,15.15
2022-08-21T07:28:06.882Z,19.02
2022-08-21T07:30:38.306Z,16.00
2022-08-21T07:33:06.984Z,18.95
2022-08-21T07:35:38.001Z,19.85
2022-08-21T07:38:07.221Z,17.23
2022-08-21T07:40:35.726Z,15.18
2022-08-21T07:43:05.126Z,16.38
2022-08-21T07:45:34.724Z,15.13
2022-08-21T07:48:06.062Z,15.52
2022-08-21T07:50:35.983Z,23.60
2022-08-21T07:53:06.459Z,16.60
2022-08-21T07:55:35.315Z,17.42
2022-08-21T07:58:04.348Z,20.38
2022-08-21T08:00:33.866Z,20.05
2022-08-21T08:03:04.684Z,18.10
2022-08-21T08:05:38.322Z,14.05
2022-08-21T08:08:07.986Z,17.00
2022-08-21T08:10:37.222Z,15.05
2022-08-21T08:13:10.431Z,20.88
2022-08-21T08:15:47.665Z,15.00
2022-08-21T08:18:19.201Z,12.60
2022-08-21T08:20:50.346Z,20.77
2022-08-21T08:23:19.415Z,26.27
2022-08-21T08:25:48.074Z,22.20
2022-08-21T08:34:12.922Z,17.10
2022-08-21T08:36:52.998Z,15.80
2022-08-21T08:39:26.414Z,17.73
2022-08-21T08:42:32.730Z,14.45
2022-08-21T08:45:05.237Z,16.15
2022-08-21T08:47:43.040Z,17.38
2022-08-21T08:50:19.869Z,14.50
2022-08-21T08:52:54.454Z,21.63
2022-08-21T08:55:31.182Z,18.48
2022-08-21T08:58:03.616Z,18.25
2022-08-21T09:00:35.121Z,21.50
2022-08-21T09:03:06.562Z,17.38
2022-08-21T09:05:51.044Z,17.65
2022-08-21T09:08:50.844Z,19.75
2022-08-21T09:11:31.393Z,13.80
2022-08-21T09:14:16.651Z,15.68
2022-08-21T09:17:02.588Z,17.70
2022-08-21T09:19:58.017Z,15.80
2022-08-21T09:22:51.452Z,17.02
2022-08-21T09:25:25.013Z,17.23
2022-08-21T09:27:58.193Z,18.27
2022-08-21T09:30:33.219Z,23.05
2022-08-21T09:35:33.029Z,19.75
2022-08-21T09:38:14.237Z,17.17
2022-08-21T09:40:47.560Z,14.38
2022-08-21T09:43:22.971Z,14.75
2022-08-21T09:46:11.284Z,14.45
2022-08-21T09:48:48.633Z,18.73
2022-08-21T09:51:24.227Z,14.77
2022-08-21T09:54:15.161Z,13.48
2022-08-21T09:57:18.259Z,14.95
2022-08-21T09:59:54.881Z,15.40
2022-08-21T10:02:32.287Z,15.77
2022-08-21T10:07:47.811Z,14.82
2022-08-21T10:10:27.747Z,13.98
2022-08-21T10:13:24.968Z,13.20
2022-08-21T10:16:32.163Z,16.05
2022-08-21T10:19:18.959Z,20.33
2022-08-21T10:22:02.885Z,13.18
2022-08-21T10:24:40.953Z,15.75
2022-08-21T10:27:23.695Z,15.85
2022-08-21T10:30:08.229Z,17.50
2022-08-21T10:33:03.702Z,13.23
2022-08-21T10:35:51.303Z,15.20
2022-08-21T10:39:25.985Z,13.82
2022-08-21T10:45:37.362Z,17.80
2022-08-21T10:48:09.756Z,17.77
2022-08-21T10:50:47.191Z,13.73
2022-08-21T10:53:43.540Z,15.65
2022-08-21T10:56:19.929Z,13.48
2022-08-21T10:59:04.210Z,10.85
2022-08-21T11:01:50.602Z,12.20
2022-08-21T11:04:26.292Z,15.52
2022-08-21T11:07:17.286Z,15.07
2022-08-21T11:09:50.129Z,11.52
2022-08-21T11:12:28.130Z,11.88
2022-08-21T11:15:02.726Z,9.65
2022-08-21T11:17:40.593Z,18.38
2022-08-21T11:20:17.418Z,11.48
2022-08-21T11:23:01.511Z,12.13
2022-08-21T11:25:37.658Z,11.13
2022-08-21T11:28:15.119Z,11.32
2022-08-21T11:30:58.260Z,15.70
2022-08-21T11:33:46.259Z,11.05
2022-08-21T11:36:34.240Z,12.75
2022-08-21T11:39:15.526Z,9.35
2022-08-21T11:41:55.168Z,12.07
2022-08-21T11:44:44.613Z,9.90
2022-08-21T11:47:21.702Z,11.45
2022-08-21T11:50:32.524Z,16.50
2022-08-21T11:53:11.317Z,12.27
2022-08-21T11:55:46.768Z,12.85
2022-08-21T11:58:22.946Z,11.93
2022-08-21T12:00:56.057Z,10.20
2022-08-21T12:03:30.030Z,10.10
2022-08-21T12:06:02.819Z,11.15
2022-08-21T12:08:34.968Z,10.27
2022-08-21T12:11:08.422Z,10.30
2022-08-21T12:13:42.152Z,8.63
2022-08-21T12:16:14.852Z,10.20
2022-08-21T12:18:44.486Z,7.38
2022-08-21T12:21:28.805Z,8.70
2022-08-21T12:24:17.990Z,5.93
2022-08-21T12:26:53.127Z,5.97
2022-08-21T12:32:06.261Z,11.27
2022-08-21T12:34:39.668Z,9.05
2022-08-21T12:37:20.871Z,6.43
2022-08-21T12:39:54.235Z,8.02
2022-08-21T12:42:29.468Z,8.95
2022-08-21T12:45:02.147Z,11.63
2022-08-21T12:47:38.447Z,11.15
2022-08-21T12:50:13.148Z,9.35
2022-08-21T12:52:56.216Z,8.63
2022-08-21T12:55:30.318Z,8.60
2022-08-21T12:57:59.034Z,6.80
2022-08-21T13:00:31.439Z,6.78
2022-08-21T13:03:00.634Z,9.25
2022-08-21T13:05:38.940Z,7.95
2022-08-21T13:08:12.705Z,7.07
2022-08-21T13:10:43.077Z,6.80
2022-08-21T13:13:25.831Z,7.60
2022-08-21T13:18:34.943Z,6.10
2022-08-21T13:21:10.212Z,7.80
2022-08-21T13:23:40.280Z,7.20
2022-08-21T13:26:18.601Z,10.40
2022-08-21T13:28:48.478Z,11.95
2022-08-21T13:31:24.038Z,10.15
2022-08-21T13:33:52.633Z,9.23
2022-08-21T13:36:27.143Z,13.93
2022-08-21T13:38:57.306Z,7.70
2022-08-21T13:41:31.109Z,10.30
2022-08-21T13:44:03.876Z,6.78
2022-08-21T13:46:36.348Z,9.43
2022-08-21T13:49:07.865Z,6.43
2022-08-21T13:51:37.045Z,6.55
2022-08-21T13:54:24.250Z,9.20
2022-08-21T13:56:52.625Z,7.35
2022-08-21T13:59:30.910Z,7.63
2022-08-21T14:02:02.181Z,6.40
2022-08-21T14:04:37.795Z,10.50
2022-08-21T14:07:19.677Z,7.68
2022-08-21T14:09:49.739Z,5.18
2022-08-21T14:12:25.677Z,9.25
2022-08-21T14:14:55.194Z,7.13
2022-08-21T14:17:33.550Z,8.93
2022-08-21T14:20:02.783Z,7.65
2022-08-21T14:22:40.131Z,9.02
2022-08-21T14:25:14.669Z,9.85
2022-08-21T14:27:52.318Z,7.65
2022-08-21T14:30:28.809Z,8.32
2022-08-21T14:32:58.111Z,10.15
2022-08-21T14:35:26.668Z,7.22
2022-08-21T14:37:55.398Z,16.27
2022-08-21T14:40:27.515Z,9.45
2022-08-21T14:42:56.165Z,7.38
2022-08-21T14:45:30.170Z,8.05
2022-08-21T14:47:59.698Z,10.30
2022-08-21T14:50:28.455Z,11.45
2022-08-21T14:52:56.640Z,9.65
2022-08-21T14:55:26.198Z,8.82
2022-08-21T14:57:56.917Z,12.38
2022-08-21T15:00:36.007Z,10.40
2022-08-21T15:03:07.217Z,9.55
2022-08-21T15:05:35.422Z,9.05
2022-08-21T15:08:03.974Z,10.88
2022-08-21T15:10:41.337Z,12.73
2022-08-21T15:13:21.297Z,11.00
2022-08-21T15:15:53.616Z,11.85
2022-08-21T15:18:22.460Z,9.70
2022-08-21T15:20:51.224Z,7.65
2022-08-21T15:23:20.310Z,9.18
2022-08-21T15:25:51.652Z,11.45
2022-08-21T15:28:21.435Z,8.60
2022-08-21T15:30:52.726Z,8.13
2022-08-21T15:33:22.384Z,7.50
2022-08-21T15:35:50.664Z,8.60
2022-08-21T15:38:18.992Z,10.70
2022-08-21T15:40:52.320Z,9.80
2022-08-21T15:43:30.643Z,13.10
2022-08-21T15:46:01.158Z,8.75
2022-08-21T15:48:30.257Z,8.55
2022-08-21T15:50:58.441Z,11.80
2022-08-21T15:53:26.574Z,9.70
2022-08-21T15:55:56.070Z,8.15
2022-08-21T15:58:25.755Z,12.48
2022-08-21T16:00:53.936Z,9.98
2022-08-21T16:03:22.884Z,7.85
2022-08-21T16:05:53.344Z,7.57
2022-08-21T16:08:22.497Z,10.85
2022-08-21T16:10:51.476Z,11.50
2022-08-21T16:13:27.779Z,10.45
2022-08-21T16:15:56.544Z,8.75
2022-08-21T16:18:26.544Z,8.90
2022-08-21T16:20:55.019Z,6.93
2022-08-21T16:23:23.328Z,8.55
2022-08-21T16:25:52.304Z,8.70
2022-08-21T16:28:22.566Z,9.60
2022-08-21T16:30:53.280Z,10.80
2022-08-21T16:33:28.629Z,10.07
2022-08-21T16:35:56.854Z,10.63
2022-08-21T16:38:25.241Z,9.57
2022-08-21T16:40:53.846Z,8.85
2022-08-21T16:43:24.931Z,11.05
2022-08-21T16:45:55.097Z,5.40
2022-08-21T16:48:24.206Z,8.35
2022-08-21T16:50:52.626Z,10.45
2022-08-21T16:53:20.795Z,8.05
2022-08-21T16:55:49.172Z,9.60
2022-08-21T16:58:24.761Z,7.90
2022-08-21T17:00:55.486Z,9.68
2022-08-21T17:03:33.870Z,10.02
2022-08-21T17:06:02.338Z,7.53
2022-08-21T17:08:30.510Z,10.98
2022-08-21T17:10:59.334Z,7.93
2022-08-21T17:13:28.568Z,8.48
2022-08-21T17:15:58.802Z,15.52
2022-08-21T17:18:27.848Z,11.98
2022-08-21T17:20:56.711Z,8.73
2022-08-21T17:23:25.140Z,6.97
2022-08-21T17:25:55.056Z,7.10
2022-08-21T17:28:28.900Z,8.88
2022-08-21T17:31:02.321Z,9.68
2022-08-21T17:33:45.540Z,10.75
2022-08-21T17:36:13.797Z,7.38
2022-08-21T17:38:44.212Z,8.13
2022-08-21T17:41:13.122Z,9.50
2022-08-21T17:43:42.715Z,9.85
2022-08-21T17:46:16.242Z,10.20
2022-08-21T17:48:47.257Z,10.95
2022-08-21T17:51:16.944Z,12.57
2022-08-21T17:53:46.092Z,8.70
2022-08-21T17:56:16.295Z,9.77
2022-08-21T17:58:48.391Z,8.75
2022-08-21T18:01:19.153Z,10.82
2022-08-21T18:03:48.037Z,11.93
2022-08-21T18:06:18.279Z,11.60
2022-08-21T18:08:46.993Z,8.05
2022-08-21T18:11:23.792Z,11.40
2022-08-21T18:13:55.184Z,12.88
2022-08-21T18:16:25.028Z,11.55
2022-08-21T18:18:53.514Z,14.38
2022-08-21T18:21:21.877Z,9.65
2022-08-21T18:23:50.625Z,8.38
2022-08-21T18:26:28.851Z,12.27
2022-08-21T18:29:00.442Z,7.90
2022-08-21T18:31:33.794Z,11.23
2022-08-21T18:34:07.081Z,12.98
2022-08-21T18:36:35.505Z,8.73
2022-08-21T18:39:32.709Z,8.25
2022-08-21T18:41:53.056Z,6.50
2022-08-21T18:44:24.711Z,12.25
2022-08-21T18:46:59.222Z,9.48
2022-08-21T18:49:28.213Z,9.20
2022-08-21T18:51:57.466Z,8.32
2022-08-21T18:54:26.468Z,8.13
2022-08-21T18:56:55.317Z,11.82
2022-08-21T18:59:26.772Z,13.27
2022-08-21T19:01:56.796Z,9.68
2022-08-21T19:04:43.596Z,8.65
2022-08-21T19:07:13.612Z,8.77
2022-08-21T19:09:52.740Z,12.55
2022-08-21T19:12:31.072Z,7.05
2022-08-21T19:15:00.638Z,11.27
2022-08-21T19:17:30.883Z,9.88
2022-08-21T19:20:05.880Z,11.73
2022-08-21T19:22:34.464Z,12.68
2022-08-21T19:25:02.985Z,11.70
2022-08-21T19:27:31.488Z,8.60
2022-08-21T19:30:00.349Z,8.57
2022-08-21T19:32:31.573Z,6.95
2022-08-21T19:35:00.283Z,13.57
2022-08-21T19:37:29.112Z,9.80
2022-08-21T19:39:59.078Z,10.60
2022-08-21T19:42:30.877Z,9.15
2022-08-21T19:44:59.601Z,7.95
2022-08-21T19:47:31.328Z,11.90
2022-08-21T19:50:03.851Z,9.75
2022-08-21T19:52:51.480Z,9.70
2022-08-21T19:55:20.288Z,12.70
2022-08-21T19:57:54.717Z,8.20
2022-08-21T20:00:24.195Z,15.40
2022-08-21T20:02:54.268Z,14.20
2022-08-21T20:05:22.952Z,14.43
2022-08-21T20:07:51.375Z,13.27
2022-08-21T20:10:19.893Z,13.00
2022-08-21T20:12:51.494Z,10.55
2022-08-21T20:15:23.025Z,8.13
2022-08-21T20:17:53.615Z,9.80
2022-08-21T20:20:21.905Z,7.53
2022-08-21T20:22:50.364Z,10.40
2022-08-21T20:25:21.271Z,11.35
2022-08-21T20:27:49.789Z,9.88
2022-08-21T20:30:22.719Z,11.75
2022-08-21T20:32:51.674Z,9.50
2022-08-21T20:35:23.033Z,13.07
2022-08-21T20:40:40.585Z,7.43
2022-08-21T20:43:12.829Z,10.15
2022-08-21T20:45:42.155Z,10.32
2022-08-21T20:48:15.361Z,8.25
2022-08-21T20:50:49.749Z,8.43
2022-08-21T20:53:32.164Z,12.70
2022-08-21T20:56:18.767Z,12.27
2022-08-21T20:58:57.906Z,14.55
2022-08-21T21:01:26.876Z,12.52
2022-08-21T21:04:03.141Z,9.75
2022-08-21T21:06:34.660Z,9.27
2022-08-21T21:09:11.163Z,23.35
2022-08-21T21:11:56.052Z,19.40
2022-08-21T21:14:39.175Z,12.57
2022-08-21T21:17:14.567Z,14.55
2022-08-21T21:19:49.008Z,13.27
2022-08-21T21:22:23.100Z,11.43
2022-08-21T21:25:00.864Z,14.05
2022-08-21T21:27:37.498Z,17.90
2022-08-21T21:30:12.382Z,12.95
2022-08-21T21:32:42.881Z,14.38
2022-08-21T21:35:17.074Z,13.13
2022-08-21T21:38:12.567Z,13.05
2022-08-21T21:40:58.219Z,14.35
2022-08-21T21:44:23.384Z,11.93
2022-08-21T21:47:02.728Z,10.70
2022-08-21T21:49:51.291Z,12.38
2022-08-21T21:52:41.922Z,14.75
2022-08-21T21:55:33.109Z,9.70
2022-08-21T21:58:33.371Z,9.85
2022-08-21T22:01:12.649Z,12.95
2022-08-21T22:03:48.303Z,15.63
2022-08-21T22:09:05.175Z,10.38
2022-08-21T22:11:55.743Z,12.27
2022-08-21T22:14:32.106Z,15.93
2022-08-21T22:17:28.237Z,10.88
2022-08-21T22:19:58.432Z,14.48
2022-08-21T22:22:30.437Z,11.32
2022-08-21T22:25:06.445Z,13.85
2022-08-21T22:27:40.870Z,14.82
2022-08-21T22:30:17.522Z,12.07
2022-08-21T22:32:50.384Z,12.90
2022-08-21T22:35:26.567Z,16.05
2022-08-21T22:37:58.675Z,12.30
2022-08-21T22:40:30.466Z,17.48
2022-08-21T22:43:03.626Z,17.67
2022-08-21T22:45:58.751Z,11.77
2022-08-21T22:48:29.862Z,8.70
2022-08-21T22:51:06.848Z,17.30
2022-08-21T22:53:40.768Z,12.45
2022-08-21T22:56:11.515Z,14.13
2022-08-21T22:58:56.455Z,11.25
2022-08-21T23:01:40.822Z,12.73
2022-08-21T23:06:55.311Z,13.15
2022-08-21T23:09:35.876Z,10.30
2022-08-21T23:12:21.103Z,13.00
2022-08-21T23:14:54.679Z,16.08
2022-08-21T23:17:39.389Z,13.88
2022-08-21T23:20:18.104Z,12.43
2022-08-21T23:23:08.913Z,14.05
2022-08-21T23:26:22.771Z,18.23
2022-08-21T23:29:24.911Z,9.18
2022-08-21T23:32:05.156Z,13.55
2022-08-21T23:34:46.074Z,12.75
2022-08-21T23:37:51.334Z,8.27
2022-08-21T23:40:50.939Z,13.13
2022-08-21T23:43:44.806Z,13.45
2022-08-21T23:46:46.159Z,15.75
2022-08-21T23:49:30.603Z,10.70
2022-08-21T23:52:15.824Z,14.13
2022-08-21T23:55:04.553Z,14.80
2022-08-21T23:57:50.971Z,12.27
